Time;durP1;ratioP1;P1;durP2;ratioP2;P2;SDS_P1;SDS_P2;PMS_P1;PMS_P2;Temp;Humidity;BMP_temperature;BMP_pressure;BME280_temperature;BME280_humidity;BME280_pressure;Samples;Min_cycle;Max_cycle;Signal;HPM_P1;HPM_P2
2021/12/02 00:00:34;;;;;;;;;;;5.20;99.90;;;;;;4991699;28;19926;-73
2021/12/02 00:03:03;;;;;;;;;;;4.90;99.90;;;;;;4990294;28;19929;-73
2021/12/02 00:05:29;;;;;;;;;;;5.60;99.90;;;;;;4991247;28;20019;-73
2021/12/02 00:07:54;;;;;;;;;;;5.90;99.90;;;;;;4990407;28;20398;-74
2021/12/02 00:10:26;;;;;;;;;;;4.50;99.90;;;;;;4992703;28;19937;-73
2021/12/02 00:12:53;;;;;;;;;;;5.40;99.90;;;;;;4991249;28;19926;-76
2021/12/02 00:15:23;;;;;;;;;;;6.40;99.90;;;;;;4991915;28;20352;-73
2021/12/02 00:17:55;;;;;;;;;;;5.30;99.90;;;;;;4990610;28;19930;-73
2021/12/02 00:23:25;;;;;;;;;;;4.50;99.90;;;;;;4992930;28;19980;-73
2021/12/02 00:25:51;;;;;;;;;;;5.30;99.90;;;;;;4992195;28;19988;-73
2021/12/02 00:28:18;;;;;;;;;;;5.30;99.90;;;;;;4991828;28;20028;-73
2021/12/02 00:30:44;;;;;;;;;;;5.90;99.90;;;;;;4991870;28;20279;-73
2021/12/02 00:33:10;;;;;;;;;;;6.00;99.90;;;;;;4991603;28;19930;-74
2021/12/02 00:35:36;;;;;;;;;;;5.90;99.90;;;;;;4991851;28;19926;-72
2021/12/02 00:38:02;;;;;;;;;;;5.40;99.90;;;;;;4992434;28;19933;-73
2021/12/02 00:40:28;;;;;;;;;;;6.10;99.90;;;;;;4992533;28;19926;-73
2021/12/02 00:42:54;;;;;;;;;;;6.10;99.90;;;;;;4992482;28;19933;-73
2021/12/02 00:45:19;;;;;;;;;;;6.10;99.90;;;;;;4992566;28;19955;-74
2021/12/02 00:47:46;;;;;;;;;;;6.10;99.90;;;;;;4989809;28;19930;-73
2021/12/02 00:50:11;;;;;;;;;;;4.30;99.90;;;;;;4992033;28;19937;-73
2021/12/02 00:52:38;;;;;;;;;;;3.70;99.90;;;;;;4990868;28;19926;-73
2021/12/02 00:55:04;;;;;;;;;;;6.10;99.90;;;;;;4991206;28;19926;-73
2021/12/02 00:57:30;;;;;;;;;;;4.20;99.90;;;;;;4991366;28;19937;-73
2021/12/02 00:59:57;;;;;;;;;;;4.50;99.90;;;;;;4991518;28;19926;-73
2021/12/02 01:02:23;;;;;;;;;;;5.50;99.90;;;;;;4992106;28;20362;-73
2021/12/02 01:04:49;;;;;;;;;;;4.50;99.90;;;;;;4990485;28;20024;-72
2021/12/02 01:07:15;;;;;;;;;;;5.20;99.90;;;;;;4991806;28;20031;-73
2021/12/02 01:09:41;;;;;;;;;;;4.40;99.90;;;;;;4991738;28;19949;-73
2021/12/02 01:12:07;;;;;;;;;;;4.90;99.90;;;;;;4991633;28;20383;-73
2021/12/02 01:14:32;;;;;;;;;;;6.10;99.90;;;;;;4989610;28;19932;-73
2021/12/02 01:16:58;;;;;;;;;;;4.40;99.90;;;;;;4991015;28;19926;-73
2021/12/02 01:19:24;;;;;;;;;;;4.60;99.90;;;;;;4991791;28;20334;-73
2021/12/02 01:21:50;;;;;;;;;;;6.10;99.90;;;;;;4993770;28;19929;-73
2021/12/02 01:24:16;;;;;;;;;;;6.30;99.90;;;;;;4996038;28;19949;-73
2021/12/02 01:26:48;;;;;;;;;;;6.00;99.90;;;;;;4995855;28;19981;-73
2021/12/02 01:29:14;;;;;;;;;;;5.30;99.90;;;;;;4995768;28;19953;-73
2021/12/02 01:31:41;;;;;;;;;;;6.00;99.90;;;;;;4995463;28;19930;-74
2021/12/02 01:34:07;;;;;;;;;;;5.10;99.90;;;;;;4994911;28;20133;-73
2021/12/02 01:36:34;;;;;;;;;;;5.30;99.90;;;;;;4995454;28;19930;-73
2021/12/02 01:39:00;;;;;;;;;;;4.60;99.90;;;;;;4994872;28;19930;-73
2021/12/02 01:41:26;;;;;;;;;;;5.80;99.90;;;;;;4994878;28;19948;-73
2021/12/02 01:43:53;;;;;;;;;;;5.60;99.90;;;;;;4994778;28;20020;-72
2021/12/02 01:46:26;;;;;;;;;;;4.60;99.90;;;;;;4995230;28;19925;-73
2021/12/02 01:49:01;;;;;;;;;;;6.40;99.90;;;;;;4994684;28;19922;-73
2021/12/02 01:51:27;;;;;;;;;;;6.40;99.90;;;;;;4995327;28;20346;-73
2021/12/02 01:53:57;;;;;;;;;;;5.90;99.90;;;;;;4994718;28;20076;-73
2021/12/02 01:56:26;;;;;;;;;;;6.30;99.90;;;;;;4995432;28;19925;-73
2021/12/02 01:58:52;;;;;;;;;;;5.50;99.90;;;;;;4994610;28;19926;-75
2021/12/02 02:01:22;;;;;;;;;;;6.30;99.90;;;;;;4995051;28;20290;-73
2021/12/02 02:03:49;;;;;;;;;;;5.60;99.90;;;;;;4994577;28;19932;-74
2021/12/02 02:06:19;;;;;;;;;;;6.30;99.90;;;;;;4995110;28;19972;-73
2021/12/02 02:08:46;;;;;;;;;;;5.40;99.90;;;;;;4994731;28;19932;-73
2021/12/02 02:11:12;;;;;;;;;;;5.30;99.90;;;;;;4994981;28;19925;-73
2021/12/02 02:13:41;;;;;;;;;;;5.30;99.90;;;;;;4993702;28;19926;-74
2021/12/02 02:16:07;;;;;;;;;;;5.90;99.90;;;;;;4994520;28;20526;-73
2021/12/02 02:18:32;;;;;;;;;;;4.20;99.90;;;;;;4994160;28;20398;-73
2021/12/02 02:21:01;;;;;;;;;;;6.00;99.90;;;;;;4993662;28;19934;-73
2021/12/02 02:23:29;;;;;;;;;;;4.80;99.90;;;;;;4994648;28;19972;-73
2021/12/02 02:25:55;;;;;;;;;;;5.80;99.90;;;;;;4993764;28;19930;-74
2021/12/02 02:28:21;;;;;;;;;;;4.40;99.90;;;;;;4992840;28;19926;-74
2021/12/02 02:30:47;;;;;;;;;;;6.30;99.90;;;;;;4991742;28;19996;-73
2021/12/02 02:33:14;;;;;;;;;;;4.30;99.90;;;;;;4992251;28;19981;-75
2021/12/02 02:35:40;;;;;;;;;;;4.20;99.90;;;;;;4992930;28;19991;-76
2021/12/02 02:38:06;;;;;;;;;;;6.10;99.90;;;;;;4992748;28;20083;-73
2021/12/02 02:40:32;;;;;;;;;;;3.80;99.90;;;;;;4992585;28;20004;-74
2021/12/02 02:43:05;;;;;;;;;;;6.10;99.90;;;;;;4992919;28;19932;-73
2021/12/02 02:45:30;;;;;;;;;;;5.80;99.90;;;;;;4991554;28;19932;-76
2021/12/02 02:47:56;;;;;;;;;;;5.00;99.90;;;;;;4991283;28;19926;-73
2021/12/02 02:50:22;;;;;;;;;;;4.30;99.90;;;;;;4991718;28;19921;-76
2021/12/02 02:52:48;;;;;;;;;;;4.80;99.90;;;;;;4994000;28;20273;-73
2021/12/02 02:55:21;;;;;;;;;;;6.00;99.90;;;;;;4993264;28;19922;-73
2021/12/02 02:58:15;;;;;;;;;;;4.80;99.90;;;;;;4994090;28;19929;-73
2021/12/02 03:00:53;;;;;;;;;;;3.70;99.90;;;;;;4993242;28;20334;-73
2021/12/02 03:08:23;;;;;;;;;;;4.10;99.90;;;;;;4994248;28;19936;-76
2021/12/02 03:10:56;;;;;;;;;;;4.40;99.90;;;;;;4993757;28;19977;-74
2021/12/02 03:13:35;;;;;;;;;;;3.70;99.90;;;;;;4993904;28;20276;-73
2021/12/02 03:18:45;;;;;;;;;;;5.60;99.90;;;;;;4993546;28;20411;-73
2021/12/02 03:21:20;;;;;;;;;;;5.70;99.90;;;;;;4993354;28;20012;-73
2021/12/02 03:23:47;;;;;;;;;;;5.10;99.90;;;;;;4991871;28;19992;-73
2021/12/02 03:26:12;;;;;;;;;;;3.60;99.90;;;;;;4992181;28;20017;-74
2021/12/02 03:28:38;;;;;;;;;;;7.60;99.90;;;;;;4992248;28;19925;-73
2021/12/02 03:31:04;;;;;;;;;;;4.20;99.90;;;;;;4992779;28;19925;-72
2021/12/02 03:33:29;;;;;;;;;;;6.50;99.90;;;;;;4993381;28;19951;-72
2021/12/02 03:35:55;;;;;;;;;;;4.70;99.90;;;;;;4992180;28;19926;-73
2021/12/02 03:38:20;;;;;;;;;;;5.90;99.90;;;;;;4991596;28;19926;-74
2021/12/02 03:40:46;;;;;;;;;;;6.10;99.90;;;;;;4992617;28;20036;-74
2021/12/02 03:43:13;;;;;;;;;;;6.80;99.90;;;;;;4991122;28;21430;-74
2021/12/02 03:45:39;;;;;;;;;;;5.50;99.90;;;;;;4993113;28;19976;-74
2021/12/02 03:48:05;;;;;;;;;;;3.40;99.90;;;;;;4993082;28;19925;-74
2021/12/02 03:50:30;;;;;;;;;;;5.30;99.90;;;;;;4991539;28;19925;-74
2021/12/02 03:52:56;;;;;;;;;;;4.60;99.90;;;;;;4975884;28;19926;-74
2021/12/02 03:55:23;;;;;;;;;;;6.80;99.90;;;;;;4992715;28;19980;-74
2021/12/02 03:57:49;;;;;;;;;;;7.90;99.90;;;;;;4992479;28;19929;-75
2021/12/02 04:00:14;;;;;;;;;;;4.80;99.90;;;;;;4991631;28;19980;-74
2021/12/02 04:02:40;;;;;;;;;;;5.40;99.90;;;;;;4991557;28;19933;-74
2021/12/02 04:05:06;;;;;;;;;;;7.50;99.90;;;;;;4992483;28;20025;-74
2021/12/02 04:07:31;;;;;;;;;;;5.60;99.90;;;;;;4991286;28;19925;-74
2021/12/02 04:09:58;;;;;;;;;;;6.90;99.90;;;;;;4992442;28;19933;-74
2021/12/02 04:15:04;;;;;;;;;;;4.80;99.90;;;;;;4991414;28;19926;-74
2021/12/02 04:17:41;;;;;;;;;;;8.00;99.90;;;;;;4992399;28;19936;-73
2021/12/02 04:20:14;;;;;;;;;;;3.70;99.90;;;;;;4992014;28;20042;-73
2021/12/02 04:22:40;;;;;;;;;;;5.30;99.90;;;;;;4992337;28;19965;-73
2021/12/02 04:25:07;;;;;;;;;;;4.10;99.90;;;;;;4974605;28;20053;-73
2021/12/02 04:27:32;;;;;;;;;;;4.60;99.90;;;;;;4992229;28;20282;-73
2021/12/02 04:29:58;;;;;;;;;;;5.10;99.90;;;;;;4992024;28;19933;-74
2021/12/02 04:32:24;;;;;;;;;;;6.20;99.90;;;;;;4990541;28;19925;-73
2021/12/02 04:34:49;;;;;;;;;;;4.40;99.90;;;;;;4991970;28;19952;-73
2021/12/02 04:37:15;;;;;;;;;;;7.80;99.90;;;;;;4991543;28;19932;-75
2021/12/02 04:39:40;;;;;;;;;;;5.20;99.90;;;;;;4991871;28;20322;-73
2021/12/02 04:42:06;;;;;;;;;;;6.30;99.90;;;;;;4991460;28;19930;-73
2021/12/02 04:44:31;;;;;;;;;;;5.00;99.90;;;;;;4991979;28;20070;-75
2021/12/02 04:46:57;;;;;;;;;;;3.60;99.90;;;;;;4991519;28;19932;-73
2021/12/02 04:49:23;;;;;;;;;;;4.70;99.90;;;;;;4991595;28;20122;-74
2021/12/02 04:51:49;;;;;;;;;;;6.40;99.90;;;;;;4991091;28;19926;-74
2021/12/02 04:54:14;;;;;;;;;;;5.80;99.90;;;;;;4992064;28;19971;-74
2021/12/02 04:56:40;;;;;;;;;;;7.00;99.90;;;;;;4995555;28;20371;-76
2021/12/02 04:59:06;;;;;;;;;;;6.40;99.90;;;;;;4995513;28;20076;-74
2021/12/02 05:01:31;;;;;;;;;;;7.30;99.90;;;;;;4994752;28;19926;-73
2021/12/02 05:03:57;;;;;;;;;;;3.50;99.90;;;;;;4994705;28;19925;-73
2021/12/02 05:06:22;;;;;;;;;;;5.50;99.90;;;;;;4994467;28;20028;-73
2021/12/02 05:08:48;;;;;;;;;;;8.00;99.90;;;;;;4995411;28;19933;-73
2021/12/02 05:11:13;;;;;;;;;;;5.10;99.90;;;;;;4993712;28;19933;-73
2021/12/02 05:13:39;;;;;;;;;;;6.30;99.90;;;;;;4995868;28;20382;-76
2021/12/02 05:16:05;;;;;;;;;;;6.50;99.90;;;;;;4996155;28;20334;-73
2021/12/02 05:18:30;;;;;;;;;;;3.60;99.90;;;;;;4995119;28;19926;-73
2021/12/02 05:20:57;;;;;;;;;;;6.80;99.90;;;;;;4995944;28;19929;-74
2021/12/02 05:23:23;;;;;;;;;;;5.80;99.90;;;;;;4995691;28;19926;-74
2021/12/02 05:25:48;;;;;;;;;;;6.90;99.90;;;;;;4993727;28;19992;-73
2021/12/02 05:28:15;;;;;;;;;;;6.30;99.90;;;;;;4995153;28;19925;-73
2021/12/02 05:30:41;;;;;;;;;;;4.60;99.90;;;;;;4995665;28;19926;-73
2021/12/02 05:33:06;;;;;;;;;;;5.90;99.90;;;;;;4994694;28;19926;-73
2021/12/02 05:35:32;;;;;;;;;;;6.00;99.90;;;;;;4995194;28;19930;-73
2021/12/02 05:37:58;;;;;;;;;;;6.10;99.90;;;;;;4995414;28;20384;-76
2021/12/02 05:40:23;;;;;;;;;;;3.60;99.90;;;;;;4995168;28;19969;-73
2021/12/02 05:42:49;;;;;;;;;;;6.70;99.90;;;;;;4995338;28;20021;-74
2021/12/02 05:45:14;;;;;;;;;;;5.60;99.90;;;;;;4995041;28;19926;-74
2021/12/02 05:47:40;;;;;;;;;;;7.70;99.90;;;;;;4995483;28;19933;-74
2021/12/02 05:50:06;;;;;;;;;;;3.30;99.90;;;;;;4994055;28;20378;-76
2021/12/02 05:52:31;;;;;;;;;;;3.20;99.90;;;;;;4995151;28;19922;-79
2021/12/02 05:54:58;;;;;;;;;;;4.80;99.90;;;;;;4994236;28;19926;-78
2021/12/02 05:57:23;;;;;;;;;;;4.30;99.90;;;;;;4995082;28;19926;-80
2021/12/02 05:59:49;;;;;;;;;;;6.40;99.90;;;;;;4995250;28;20064;-80
2021/12/02 06:02:15;;;;;;;;;;;5.60;99.90;;;;;;4994597;28;19942;-79
2021/12/02 06:04:42;;;;;;;;;;;6.50;99.90;;;;;;4994664;28;19957;-79
2021/12/02 06:07:08;;;;;;;;;;;4.40;99.90;;;;;;4994212;28;20291;-79
2021/12/02 06:09:33;;;;;;;;;;;6.30;99.90;;;;;;4994449;28;20029;-79
2021/12/02 06:11:59;;;;;;;;;;;7.00;99.90;;;;;;4995024;28;19930;-79
2021/12/02 06:14:25;;;;;;;;;;;7.30;99.90;;;;;;4994196;28;19925;-78
2021/12/02 06:16:50;;;;;;;;;;;6.60;99.90;;;;;;4994599;28;20105;-77
2021/12/02 06:19:16;;;;;;;;;;;7.30;99.90;;;;;;4994020;28;20305;-78
2021/12/02 06:21:42;;;;;;;;;;;6.60;99.90;;;;;;4994796;28;20049;-79
2021/12/02 06:24:08;;;;;;;;;;;5.80;99.90;;;;;;4994811;28;20032;-78
2021/12/02 06:26:34;;;;;;;;;;;5.20;99.90;;;;;;4994306;28;19937;-77
2021/12/02 06:29:00;;;;;;;;;;;8.10;99.90;;;;;;4994505;28;20445;-78
2021/12/02 06:31:25;;;;;;;;;;;5.30;99.90;;;;;;4993777;28;19927;-78
2021/12/02 06:33:51;;;;;;;;;;;6.90;99.90;;;;;;4993920;28;19977;-78
2021/12/02 06:36:16;;;;;;;;;;;7.00;99.90;;;;;;4992894;28;20024;-81
2021/12/02 06:38:42;;;;;;;;;;;4.50;99.90;;;;;;4994478;28;19957;-79
2021/12/02 06:41:08;;;;;;;;;;;3.80;99.90;;;;;;4994677;28;19926;-77
2021/12/02 06:43:34;;;;;;;;;;;4.70;99.90;;;;;;4994203;28;19932;-79
2021/12/02 06:45:59;;;;;;;;;;;4.90;99.90;;;;;;4994628;28;19929;-77
2021/12/02 06:48:25;;;;;;;;;;;7.70;99.90;;;;;;4993908;28;19969;-77
2021/12/02 06:50:51;;;;;;;;;;;7.80;99.90;;;;;;4993435;28;19926;-77
2021/12/02 06:53:17;;;;;;;;;;;8.60;99.90;;;;;;4994567;28;19956;-77
2021/12/02 06:55:43;;;;;;;;;;;4.60;99.90;;;;;;4994547;28;19926;-76
2021/12/02 06:58:09;;;;;;;;;;;7.20;99.90;;;;;;4994430;28;19926;-77
2021/12/02 07:00:35;;;;;;;;;;;5.40;99.90;;;;;;4993874;28;19926;-77
2021/12/02 07:03:01;;;;;;;;;;;5.40;99.90;;;;;;4993014;28;19926;-77
2021/12/02 07:05:29;;;;;;;;;;;5.30;99.90;;;;;;4993540;28;19926;-77
2021/12/02 07:07:55;;;;;;;;;;;8.50;99.90;;;;;;4994345;28;19932;-77
2021/12/02 07:10:24;;;;;;;;;;;4.70;99.90;;;;;;4993717;28;20281;-77
2021/12/02 07:12:53;;;;;;;;;;;6.90;99.90;;;;;;4991875;28;19930;-82
2021/12/02 07:15:21;;;;;;;;;;;5.50;99.90;;;;;;4992529;28;19926;-77
2021/12/02 07:17:55;;;;;;;;;;;5.40;99.90;;;;;;4993692;28;19933;-78
2021/12/02 07:20:21;;;;;;;;;;;6.30;99.90;;;;;;4993553;28;19984;-78
2021/12/02 07:22:46;;;;;;;;;;;6.70;99.90;;;;;;4994054;28;19988;-77
2021/12/02 07:25:12;;;;;;;;;;;5.10;99.90;;;;;;4993908;28;19926;-77
2021/12/02 07:27:38;;;;;;;;;;;7.30;99.90;;;;;;4993433;28;19925;-77
2021/12/02 07:30:05;;;;;;;;;;;4.10;99.90;;;;;;4993574;28;20271;-77
2021/12/02 07:32:36;;;;;;;;;;;5.30;99.90;;;;;;4993671;28;19926;-77
2021/12/02 07:35:03;;;;;;;;;;;5.70;99.90;;;;;;4992452;28;20024;-77
2021/12/02 07:37:29;;;;;;;;;;;4.10;99.90;;;;;;4993178;28;19926;-77
2021/12/02 07:39:55;;;;;;;;;;;6.20;99.90;;;;;;4992043;28;20363;-77
2021/12/02 07:42:21;;;;;;;;;;;7.70;99.90;;;;;;4992786;28;19925;-77
2021/12/02 07:44:47;;;;;;;;;;;8.70;99.90;;;;;;4990493;28;19933;-77
2021/12/02 07:47:12;;;;;;;;;;;8.30;99.90;;;;;;4992727;28;20020;-78
2021/12/02 07:49:39;;;;;;;;;;;5.80;99.90;;;;;;4992623;28;19926;-77
2021/12/02 07:52:04;;;;;;;;;;;6.30;99.90;;;;;;4992162;28;19926;-77
2021/12/02 07:54:33;;;;;;;;;;;4.80;99.90;;;;;;4992962;28;20401;-77
2021/12/02 07:56:59;;;;;;;;;;;5.70;99.90;;;;;;4993039;28;19926;-77
2021/12/02 07:59:24;;;;;;;;;;;7.40;99.90;;;;;;4991403;28;19926;-77
2021/12/02 08:01:51;;;;;;;;;;;4.10;99.90;;;;;;4991666;28;19930;-77
2021/12/02 08:04:16;;;;;;;;;;;7.90;99.90;;;;;;4992483;28;20481;-76
2021/12/02 08:06:42;;;;;;;;;;;7.20;99.90;;;;;;4992291;28;19926;-77
2021/12/02 08:09:12;;;;;;;;;;;7.50;99.90;;;;;;4992812;28;19981;-77
2021/12/02 08:11:37;;;;;;;;;;;5.20;99.90;;;;;;4992334;28;19926;-78
2021/12/02 08:14:07;;;;;;;;;;;5.00;99.90;;;;;;4989848;28;20270;-78
2021/12/02 08:16:33;;;;;;;;;;;7.30;99.90;;;;;;4991875;28;20354;-78
2021/12/02 08:19:01;;;;;;;;;;;7.60;99.90;;;;;;4991808;28;19925;-78
2021/12/02 08:21:26;;;;;;;;;;;5.40;99.90;;;;;;4992224;28;19922;-77
2021/12/02 08:23:52;;;;;;;;;;;6.50;99.90;;;;;;4975539;28;19987;-76
2021/12/02 08:26:17;;;;;;;;;;;8.10;99.90;;;;;;4992670;28;20012;-76
2021/12/02 08:28:43;;;;;;;;;;;7.40;99.90;;;;;;4991546;28;19949;-76
2021/12/02 08:31:09;;;;;;;;;;;6.00;99.90;;;;;;4991297;28;19926;-76
2021/12/02 08:33:34;;;;;;;;;;;4.90;99.90;;;;;;4991807;28;19981;-78
2021/12/02 08:36:00;;;;;;;;;;;7.20;99.90;;;;;;4992731;28;20005;-76
2021/12/02 08:38:32;;;;;;;;;;;5.10;99.90;;;;;;4992522;28;19936;-78
2021/12/02 08:40:58;;;;;;;;;;;5.80;99.90;;;;;;4992848;28;19925;-76
2021/12/02 08:43:25;;;;;;;;;;;5.90;99.90;;;;;;4992624;28;19933;-76
2021/12/02 08:45:51;;;;;;;;;;;6.90;99.90;;;;;;4992574;28;19926;-76
2021/12/02 08:48:16;;;;;;;;;;;3.30;99.90;;;;;;4992477;28;19926;-77
2021/12/02 08:50:42;;;;;;;;;;;4.20;99.90;;;;;;4990819;28;19933;-76
2021/12/02 08:53:09;;;;;;;;;;;4.70;99.90;;;;;;4991352;28;19949;-76
2021/12/02 08:55:35;;;;;;;;;;;6.40;99.90;;;;;;4992229;28;19926;-76
2021/12/02 08:58:03;;;;;;;;;;;5.90;99.90;;;;;;4991092;28;19929;-76
2021/12/02 09:00:36;;;;;;;;;;;6.50;99.90;;;;;;4992214;28;19925;-76
2021/12/02 09:03:06;;;;;;;;;;;6.90;99.90;;;;;;4992366;28;19969;-76
2021/12/02 09:05:31;;;;;;;;;;;3.70;99.90;;;;;;4992067;28;19937;-76
2021/12/02 09:07:57;;;;;;;;;;;5.90;99.90;;;;;;4992529;28;19926;-76
2021/12/02 09:10:23;;;;;;;;;;;6.80;99.90;;;;;;4991324;28;20049;-76
2021/12/02 09:12:49;;;;;;;;;;;7.50;99.90;;;;;;4992084;28;19972;-76
2021/12/02 09:15:15;;;;;;;;;;;7.50;99.90;;;;;;4992345;28;19925;-76
2021/12/02 09:17:41;;;;;;;;;;;8.50;99.90;;;;;;4991770;28;19985;-76
2021/12/02 09:20:08;;;;;;;;;;;7.70;99.90;;;;;;4991079;28;20301;-75
2021/12/02 09:22:35;;;;;;;;;;;4.70;99.90;;;;;;4990769;28;20425;-77
2021/12/02 09:25:00;;;;;;;;;;;8.30;99.90;;;;;;4992252;28;19930;-77
2021/12/02 09:27:26;;;;;;;;;;;6.40;99.90;;;;;;4992182;28;19926;-76
2021/12/02 09:29:52;;;;;;;;;;;7.90;99.90;;;;;;4991976;28;20443;-76
2021/12/02 09:32:18;;;;;;;;;;;4.70;99.90;;;;;;4991764;28;20310;-76
2021/12/02 09:34:43;;;;;;;;;;;8.80;99.90;;;;;;4990610;28;20025;-76
2021/12/02 09:37:09;;;;;;;;;;;8.60;99.90;;;;;;4992180;28;19929;-76
2021/12/02 09:39:35;;;;;;;;;;;7.40;99.90;;;;;;4990783;28;19925;-76
2021/12/02 09:42:01;;;;;;;;;;;7.00;99.90;;;;;;4994018;28;19926;-75
2021/12/02 09:44:28;;;;;;;;;;;7.30;99.90;;;;;;4995740;28;20027;-76
2021/12/02 09:46:54;;;;;;;;;;;6.50;99.90;;;;;;4995260;28;19932;-76
2021/12/02 09:49:20;;;;;;;;;;;8.30;99.90;;;;;;4994213;28;20017;-76
2021/12/02 09:54:18;;;;;;;;;;;6.60;99.90;;;;;;4995619;28;19926;-76
2021/12/02 09:56:46;;;;;;;;;;;7.50;99.90;;;;;;4995288;28;19925;-76
2021/12/02 09:59:24;;;;;;;;;;;8.40;99.90;;;;;;4994388;28;19926;-76
2021/12/02 10:01:58;;;;;;;;;;;7.60;99.90;;;;;;4995186;28;19934;-75
2021/12/02 10:04:25;;;;;;;;;;;5.30;99.90;;;;;;4995339;28;19949;-76
2021/12/02 10:07:12;;;;;;;;;;;9.20;99.90;;;;;;4995100;28;20363;-76
2021/12/02 10:09:44;;;;;;;;;;;6.80;99.90;;;;;;4994073;28;19957;-76
2021/12/02 10:12:19;;;;;;;;;;;7.30;99.90;;;;;;4995378;28;19936;-76
2021/12/02 10:14:52;;;;;;;;;;;5.90;99.90;;;;;;4994971;28;19980;-76
2021/12/02 10:17:26;;;;;;;;;;;5.90;99.90;;;;;;4994943;28;19953;-76
2021/12/02 10:20:14;;;;;;;;;;;6.80;99.90;;;;;;4993685;28;19941;-75
2021/12/02 10:22:45;;;;;;;;;;;6.00;99.90;;;;;;4994953;28;19980;-77
2021/12/02 10:25:10;;;;;;;;;;;7.30;99.90;;;;;;4995227;28;19932;-76
2021/12/02 10:27:37;;;;;;;;;;;9.40;99.90;;;;;;4994568;28;19926;-83
2021/12/02 10:30:23;;;;;;;;;;;6.70;99.90;;;;;;4995021;28;19926;-76
2021/12/02 10:32:51;;;;;;;;;;;6.30;99.90;;;;;;4993909;28;19925;-78
2021/12/02 10:35:17;;;;;;;;;;;8.20;99.90;;;;;;4994762;28;19926;-79
2021/12/02 10:37:43;;;;;;;;;;;8.30;99.90;;;;;;4994650;28;19953;-77
2021/12/02 10:40:11;;;;;;;;;;;6.60;99.90;;;;;;4994834;28;19934;-78
2021/12/02 10:42:41;;;;;;;;;;;4.00;99.90;;;;;;4995069;28;19947;-77
2021/12/02 10:45:17;;;;;;;;;;;4.80;99.90;;;;;;4995114;28;19926;-78
2021/12/02 10:47:47;;;;;;;;;;;5.20;99.90;;;;;;4993907;28;19995;-77
2021/12/02 10:50:13;;;;;;;;;;;7.70;99.90;;;;;;4994283;28;19926;-77
2021/12/02 10:52:38;;;;;;;;;;;3.50;99.90;;;;;;4993822;28;20294;-82
2021/12/02 10:55:04;;;;;;;;;;;5.10;99.90;;;;;;4993414;28;20316;-77
2021/12/02 10:57:31;;;;;;;;;;;4.00;99.90;;;;;;4994220;28;19926;-77
2021/12/02 10:59:58;;;;;;;;;;;7.00;99.90;;;;;;4993901;28;19925;-77
2021/12/02 11:02:29;;;;;;;;;;;7.50;99.90;;;;;;4992983;28;19925;-78
2021/12/02 11:05:07;;;;;;;;;;;4.50;99.90;;;;;;4994104;28;19926;-77
2021/12/02 11:07:33;;;;;;;;;;;4.30;99.90;;;;;;4994074;28;19926;-76
2021/12/02 11:10:00;;;;;;;;;;;7.80;99.90;;;;;;4993866;28;19952;-76
2021/12/02 11:12:33;;;;;;;;;;;6.90;99.90;;;;;;4994104;28;19926;-76
2021/12/02 11:15:07;;;;;;;;;;;4.90;99.90;;;;;;4993734;28;19933;-76
2021/12/02 11:17:48;;;;;;;;;;;4.90;99.90;;;;;;4993730;28;20036;-76
2021/12/02 11:20:43;;;;;;;;;;;4.30;99.90;;;;;;4993831;28;19949;-76
2021/12/02 11:23:14;;;;;;;;;;;4.10;99.90;;;;;;4964146;28;19933;-76
2021/12/02 11:26:00;;;;;;;;;;;5.30;99.90;;;;;;4993747;28;20431;-76
2021/12/02 11:28:33;;;;;;;;;;;6.90;99.90;;;;;;4993199;28;19926;-76
2021/12/02 11:31:07;;;;;;;;;;;5.90;99.90;;;;;;4993540;28;19932;-76
2021/12/02 11:33:38;;;;;;;;;;;6.00;99.90;;;;;;4991985;28;20290;-77
2021/12/02 11:36:04;;;;;;;;;;;4.20;99.90;;;;;;4993154;28;20134;-77
2021/12/02 11:38:31;;;;;;;;;;;4.90;99.90;;;;;;4993437;28;19936;-77
2021/12/02 11:40:59;;;;;;;;;;;5.60;99.90;;;;;;4992886;28;19952;-76
2021/12/02 11:43:26;;;;;;;;;;;6.30;99.90;;;;;;4993370;28;19932;-76
2021/12/02 11:45:54;;;;;;;;;;;4.40;99.90;;;;;;4992222;28;20379;-76
2021/12/02 11:48:21;;;;;;;;;;;7.40;99.90;;;;;;4993223;28;20543;-76
2021/12/02 11:50:47;;;;;;;;;;;8.10;99.90;;;;;;4992654;28;19926;-76
2021/12/02 11:53:14;;;;;;;;;;;8.10;99.90;;;;;;4993082;28;19962;-76
2021/12/02 11:55:41;;;;;;;;;;;6.00;99.90;;;;;;4993068;28;19930;-76
2021/12/02 11:58:07;;;;;;;;;;;7.30;99.90;;;;;;4992700;28;20024;-76
2021/12/02 12:00:33;;;;;;;;;;;6.80;99.90;;;;;;4993079;28;20393;-76
2021/12/02 12:03:03;;;;;;;;;;;5.70;99.90;;;;;;4991307;28;19925;-76
2021/12/02 12:05:31;;;;;;;;;;;5.40;99.90;;;;;;4992059;28;19949;-76
2021/12/02 12:07:57;;;;;;;;;;;6.30;99.90;;;;;;4992379;28;19926;-76
2021/12/02 12:10:25;;;;;;;;;;;6.80;99.90;;;;;;4992803;28;20263;-76
2021/12/02 12:12:52;;;;;;;;;;;6.30;99.90;;;;;;4992200;28;20402;-76
2021/12/02 12:15:35;;;;;;;;;;;6.30;99.90;;;;;;4991458;28;19945;-76
2021/12/02 12:18:01;;;;;;;;;;;5.50;99.90;;;;;;4989677;28;20367;-77
2021/12/02 12:20:45;;;;;;;;;;;6.20;99.90;;;;;;4992116;28;19926;-77
2021/12/02 12:23:27;;;;;;;;;;;3.70;99.90;;;;;;4992699;28;19981;-76
2021/12/02 12:26:16;;;;;;;;;;;4.90;99.90;;;;;;4990915;28;19926;-76
2021/12/02 12:29:00;;;;;;;;;;;3.80;99.90;;;;;;4992023;28;19926;-78
2021/12/02 12:31:26;;;;;;;;;;;5.30;99.90;;;;;;4992821;28;20037;-75
2021/12/02 12:33:52;;;;;;;;;;;6.00;99.90;;;;;;4991960;28;20431;-75
2021/12/02 12:36:36;;;;;;;;;;;4.40;99.90;;;;;;4992467;28;19930;-75
2021/12/02 12:39:18;;;;;;;;;;;3.90;99.90;;;;;;4992021;28;19980;-76
2021/12/02 12:41:43;;;;;;;;;;;3.90;99.90;;;;;;4991551;28;19926;-76
2021/12/02 12:44:09;;;;;;;;;;;6.40;99.90;;;;;;4992222;28;20132;-76
2021/12/02 12:46:35;;;;;;;;;;;3.80;99.90;;;;;;4991383;28;19998;-76
2021/12/02 12:49:17;;;;;;;;;;;6.10;99.90;;;;;;4989067;28;19949;-77
2021/12/02 12:51:55;;;;;;;;;;;3.80;99.90;;;;;;4992028;28;20267;-75
2021/12/02 12:54:23;;;;;;;;;;;5.30;99.90;;;;;;4992285;28;19930;-76
2021/12/02 12:56:48;;;;;;;;;;;5.20;99.90;;;;;;4991861;28;20021;-75
2021/12/02 12:59:17;;;;;;;;;;;8.40;99.90;;;;;;4992153;28;19961;-75
2021/12/02 13:01:54;;;;;;;;;;;4.30;99.90;;;;;;4992231;28;19925;-78
2021/12/02 13:04:23;;;;;;;;;;;4.30;99.90;;;;;;4992054;28;19930;-75
2021/12/02 13:06:52;;;;;;;;;;;6.40;99.90;;;;;;4991786;28;19987;-75
2021/12/02 13:10:20;;;;;;;;;;;5.60;99.90;;;;;;4991819;28;19926;-75
2021/12/02 13:12:28;;;;;;;;;;;5.90;99.90;;;;;;4983384;28;20394;-76
2021/12/02 13:14:54;;;;;;;;;;;6.10;99.90;;;;;;4991680;28;19928;-76
2021/12/02 13:17:35;;;;;;;;;;;4.60;99.90;;;;;;4994922;28;19922;-76
2021/12/02 13:20:13;;;;;;;;;;;6.10;99.90;;;;;;4995304;28;20036;-75
2021/12/02 13:22:38;;;;;;;;;;;6.30;99.90;;;;;;4996042;28;19948;-75
2021/12/02 13:25:22;;;;;;;;;;;7.80;99.90;;;;;;4995565;28;20239;-75
2021/12/02 13:27:49;;;;;;;;;;;6.40;99.90;;;;;;4995776;28;19926;-76
2021/12/02 13:30:15;;;;;;;;;;;5.00;99.90;;;;;;4995929;28;20263;-76
2021/12/02 13:32:47;;;;;;;;;;;5.20;99.90;;;;;;4995699;28;19930;-75
2021/12/02 13:35:22;;;;;;;;;;;5.70;99.90;;;;;;4995401;28;20012;-75
2021/12/02 13:37:58;;;;;;;;;;;6.60;99.90;;;;;;4995877;28;19996;-75
2021/12/02 13:40:23;;;;;;;;;;;4.90;99.90;;;;;;4995564;28;20008;-75
2021/12/02 13:42:57;;;;;;;;;;;4.30;99.90;;;;;;4995091;28;19980;-76
2021/12/02 13:45:25;;;;;;;;;;;4.30;99.90;;;;;;4994541;28;20397;-76
2021/12/02 13:47:51;;;;;;;;;;;6.60;99.90;;;;;;4995365;28;19926;-76
2021/12/02 13:50:19;;;;;;;;;;;6.10;99.90;;;;;;4995500;28;19932;-76
2021/12/02 13:52:56;;;;;;;;;;;5.80;99.90;;;;;;4995609;28;19925;-76
2021/12/02 13:55:26;;;;;;;;;;;6.10;99.90;;;;;;4994456;28;19926;-76
2021/12/02 13:57:53;;;;;;;;;;;6.30;99.90;;;;;;4995445;28;19926;-82
2021/12/02 14:00:33;;;;;;;;;;;5.00;99.90;;;;;;4995147;28;19926;-76
2021/12/02 14:03:00;;;;;;;;;;;5.10;99.90;;;;;;4993652;28;19926;-76
2021/12/02 14:05:26;;;;;;;;;;;6.60;99.90;;;;;;4995200;28;20008;-75
2021/12/02 14:07:54;;;;;;;;;;;8.10;99.90;;;;;;4995450;28;19937;-76
2021/12/02 14:10:21;;;;;;;;;;;6.60;99.90;;;;;;4995304;28;19930;-76
2021/12/02 14:12:56;;;;;;;;;;;5.90;99.90;;;;;;4995222;28;19982;-76
2021/12/02 14:15:26;;;;;;;;;;;4.80;99.90;;;;;;4994224;28;19926;-75
2021/12/02 14:17:58;;;;;;;;;;;5.10;99.90;;;;;;4994891;28;19973;-75
2021/12/02 14:20:35;;;;;;;;;;;4.30;99.90;;;;;;4994903;28;19936;-76
2021/12/02 14:23:01;;;;;;;;;;;4.50;99.90;;;;;;4994762;28;19926;-75
2021/12/02 14:25:28;;;;;;;;;;;4.10;99.90;;;;;;4994976;28;19933;-76
2021/12/02 14:28:09;;;;;;;;;;;7.60;99.90;;;;;;4993700;28;19929;-77
2021/12/02 14:30:37;;;;;;;;;;;3.30;99.90;;;;;;4994576;28;20024;-75
2021/12/02 14:33:04;;;;;;;;;;;6.00;99.90;;;;;;4993557;28;20326;-81
2021/12/02 14:35:39;;;;;;;;;;;4.90;99.90;;;;;;4991879;28;19930;-76
2021/12/02 14:38:15;;;;;;;;;;;3.10;99.90;;;;;;4993860;28;19968;-75
2021/12/02 14:40:45;;;;;;;;;;;4.30;99.90;;;;;;4994615;28;19936;-75
2021/12/02 14:43:15;;;;;;;;;;;5.70;99.90;;;;;;4993775;28;19926;-75
2021/12/02 14:45:41;;;;;;;;;;;4.50;99.90;;;;;;4994271;28;19945;-76
2021/12/02 14:48:33;;;;;;;;;;;3.30;99.90;;;;;;4992646;28;19930;-75
2021/12/02 14:51:00;;;;;;;;;;;3.70;99.90;;;;;;4991988;28;20267;-80
2021/12/02 14:53:27;;;;;;;;;;;3.20;99.90;;;;;;4993932;28;19926;-77